Aviation Digital Data Service (ADDS)

Output produced by METARs form (0617 UTC 29 January 2015)
found at http://aviationweather.gov/adds/metars/
 
KAEX 290533Z 2906/3006 16005KT P6SM SCT250 
     FM290900 00000KT 3SM BR SKC 
     TEMPO 2910/2914 1SM BR SCT005 
     FM291500 24008KT P6SM SCT250 
     FM292300 34008KT P6SM BKN050